sensor_id;sensor_type;location;lat;lon;timestamp;temperature;humidity
22235;DHT22;11286;45.596;5.284;2023-03-31T00:02:01;15.30;99.90
22235;DHT22;11286;45.596;5.284;2023-03-31T00:04:31;15.20;99.90
22235;DHT22;11286;45.596;5.284;2023-03-31T00:06:57;15.20;99.90
22235;DHT22;11286;45.596;5.284;2023-03-31T00:09:23;15.20;99.90
22235;DHT22;11286;45.596;5.284;2023-03-31T00:11:50;15.20;99.90
22235;DHT22;11286;45.596;5.284;2023-03-31T00:14:17;15.20;99.90
22235;DHT22;11286;45.596;5.284;2023-03-31T00:16:44;15.30;99.90
22235;DHT22;11286;45.596;5.284;2023-03-31T00:19:11;15.30;99.90
22235;DHT22;11286;45.596;5.284;2023-03-31T00:21:45;15.30;99.90
22235;DHT22;11286;45.596;5.284;2023-03-31T00:24:12;15.20;99.90
22235;DHT22;11286;45.596;5.284;2023-03-31T00:26:38;15.20;99.90
22235;DHT22;11286;45.596;5.284;2023-03-31T00:29:06;15.10;99.90
22235;DHT22;11286;45.596;5.284;2023-03-31T00:31:32;15.10;99.90
22235;DHT22;11286;45.596;5.284;2023-03-31T00:33:58;15.00;99.90
22235;DHT22;11286;45.596;5.284;2023-03-31T00:36:25;15.10;99.90
22235;DHT22;11286;45.596;5.284;2023-03-31T00:38:59;15.10;99.90
22235;DHT22;11286;45.596;5.284;2023-03-31T00:41:26;15.10;99.90
22235;DHT22;11286;45.596;5.284;2023-03-31T00:46:32;15.10;99.90
22235;DHT22;11286;45.596;5.284;2023-03-31T00:48:58;15.20;99.90
22235;DHT22;11286;45.596;5.284;2023-03-31T00:51:30;15.10;99.90
22235;DHT22;11286;45.596;5.284;2023-03-31T00:53:59;15.10;99.90
22235;DHT22;11286;45.596;5.284;2023-03-31T00:56:28;15.10;99.90
22235;DHT22;11286;45.596;5.284;2023-03-31T00:58:59;15.10;99.90
22235;DHT22;11286;45.596;5.284;2023-03-31T01:01:26;15.00;99.90
22235;DHT22;11286;45.596;5.284;2023-03-31T01:03:52;15.00;99.90
22235;DHT22;11286;45.596;5.284;2023-03-31T01:06:18;15.00;99.90
22235;DHT22;11286;45.596;5.284;2023-03-31T01:08:47;14.90;99.90
22235;DHT22;11286;45.596;5.284;2023-03-31T01:11:15;14.90;99.90
22235;DHT22;11286;45.596;5.284;2023-03-31T01:13:43;14.80;99.90
22235;DHT22;11286;45.596;5.284;2023-03-31T01:16:10;14.80;99.90
22235;DHT22;11286;45.596;5.284;2023-03-31T01:18:36;14.80;99.90
22235;DHT22;11286;45.596;5.284;2023-03-31T01:26:46;14.70;99.90
22235;DHT22;11286;45.596;5.284;2023-03-31T01:29:37;14.70;99.90
22235;DHT22;11286;45.596;5.284;2023-03-31T01:41:00;14.70;99.90
22235;DHT22;11286;45.596;5.284;2023-03-31T01:43:32;14.70;99.90
22235;DHT22;11286;45.596;5.284;2023-03-31T01:51:21;14.80;99.90
22235;DHT22;11286;45.596;5.284;2023-03-31T01:54:08;14.80;99.90
22235;DHT22;11286;45.596;5.284;2023-03-31T01:56:40;14.80;99.90
22235;DHT22;11286;45.596;5.284;2023-03-31T01:59:11;14.80;99.90
22235;DHT22;11286;45.596;5.284;2023-03-31T02:01:55;14.80;99.90
22235;DHT22;11286;45.596;5.284;2023-03-31T02:04:31;14.80;99.90
22235;DHT22;11286;45.596;5.284;2023-03-31T02:07:11;14.80;99.90
22235;DHT22;11286;45.596;5.284;2023-03-31T02:09:43;14.80;99.90
22235;DHT22;11286;45.596;5.284;2023-03-31T02:12:11;14.70;99.90
22235;DHT22;11286;45.596;5.284;2023-03-31T02:14:42;14.70;99.90
22235;DHT22;11286;45.596;5.284;2023-03-31T02:17:14;14.60;99.90
22235;DHT22;11286;45.596;5.284;2023-03-31T02:19:44;14.60;99.90
22235;DHT22;11286;45.596;5.284;2023-03-31T02:22:11;14.60;99.90
22235;DHT22;11286;45.596;5.284;2023-03-31T02:24:37;14.50;99.90
22235;DHT22;11286;45.596;5.284;2023-03-31T02:29:36;14.50;99.90
22235;DHT22;11286;45.596;5.284;2023-03-31T02:32:40;14.50;99.90
22235;DHT22;11286;45.596;5.284;2023-03-31T02:35:09;14.50;99.90
22235;DHT22;11286;45.596;5.284;2023-03-31T02:37:37;14.40;99.90
22235;DHT22;11286;45.596;5.284;2023-03-31T02:40:07;14.40;99.90
22235;DHT22;11286;45.596;5.284;2023-03-31T02:42:36;14.30;99.90
22235;DHT22;11286;45.596;5.284;2023-03-31T02:45:33;14.30;99.90
22235;DHT22;11286;45.596;5.284;2023-03-31T02:47:52;14.30;99.90
22235;DHT22;11286;45.596;5.284;2023-03-31T02:50:20;14.30;99.90
22235;DHT22;11286;45.596;5.284;2023-03-31T02:53:03;14.30;99.90
22235;DHT22;11286;45.596;5.284;2023-03-31T02:55:49;14.30;99.90
22235;DHT22;11286;45.596;5.284;2023-03-31T02:58:32;14.30;99.90
22235;DHT22;11286;45.596;5.284;2023-03-31T03:01:31;14.30;99.90
22235;DHT22;11286;45.596;5.284;2023-03-31T03:04:10;14.30;99.90
22235;DHT22;11286;45.596;5.284;2023-03-31T03:15:00;14.40;99.90
22235;DHT22;11286;45.596;5.284;2023-03-31T03:17:31;14.40;99.90
22235;DHT22;11286;45.596;5.284;2023-03-31T03:20:01;14.30;99.90
22235;DHT22;11286;45.596;5.284;2023-03-31T03:22:26;14.30;99.90
22235;DHT22;11286;45.596;5.284;2023-03-31T03:24:52;14.30;99.90
22235;DHT22;11286;45.596;5.284;2023-03-31T03:27:19;14.20;99.90
22235;DHT22;11286;45.596;5.284;2023-03-31T03:30:05;14.20;99.90
22235;DHT22;11286;45.596;5.284;2023-03-31T03:32:34;14.20;99.90
22235;DHT22;11286;45.596;5.284;2023-03-31T03:35:00;14.20;99.90
22235;DHT22;11286;45.596;5.284;2023-03-31T03:37:27;14.20;99.90
22235;DHT22;11286;45.596;5.284;2023-03-31T03:39:53;14.30;99.90
22235;DHT22;11286;45.596;5.284;2023-03-31T03:42:18;14.30;99.90
22235;DHT22;11286;45.596;5.284;2023-03-31T03:44:44;14.30;99.90
22235;DHT22;11286;45.596;5.284;2023-03-31T03:47:10;14.40;99.90
22235;DHT22;11286;45.596;5.284;2023-03-31T03:49:39;14.30;99.90
22235;DHT22;11286;45.596;5.284;2023-03-31T03:52:05;14.30;99.90
22235;DHT22;11286;45.596;5.284;2023-03-31T03:54:31;14.30;99.90
22235;DHT22;11286;45.596;5.284;2023-03-31T03:56:56;14.40;99.90
22235;DHT22;11286;45.596;5.284;2023-03-31T03:59:22;14.40;99.90
22235;DHT22;11286;45.596;5.284;2023-03-31T04:01:48;14.40;99.90
22235;DHT22;11286;45.596;5.284;2023-03-31T04:04:14;14.40;99.90
22235;DHT22;11286;45.596;5.284;2023-03-31T04:06:40;14.40;99.90
22235;DHT22;11286;45.596;5.284;2023-03-31T04:09:06;14.30;99.90
22235;DHT22;11286;45.596;5.284;2023-03-31T04:11:31;14.40;99.90
22235;DHT22;11286;45.596;5.284;2023-03-31T04:13:57;14.40;99.90
22235;DHT22;11286;45.596;5.284;2023-03-31T04:16:23;14.30;99.90
22235;DHT22;11286;45.596;5.284;2023-03-31T04:18:53;14.30;99.90
22235;DHT22;11286;45.596;5.284;2023-03-31T04:21:21;14.30;99.90
22235;DHT22;11286;45.596;5.284;2023-03-31T04:23:49;14.30;99.90
22235;DHT22;11286;45.596;5.284;2023-03-31T04:26:17;14.30;99.90
22235;DHT22;11286;45.596;5.284;2023-03-31T04:28:43;14.30;99.90
22235;DHT22;11286;45.596;5.284;2023-03-31T04:31:15;14.30;99.90
22235;DHT22;11286;45.596;5.284;2023-03-31T04:33:52;14.30;99.90
22235;DHT22;11286;45.596;5.284;2023-03-31T04:36:18;14.30;99.90
22235;DHT22;11286;45.596;5.284;2023-03-31T04:38:46;14.30;99.90
22235;DHT22;11286;45.596;5.284;2023-03-31T04:41:15;14.30;99.90
22235;DHT22;11286;45.596;5.284;2023-03-31T04:43:41;14.30;99.90
22235;DHT22;11286;45.596;5.284;2023-03-31T04:46:06;14.30;99.90
22235;DHT22;11286;45.596;5.284;2023-03-31T04:48:32;14.40;99.90
22235;DHT22;11286;45.596;5.284;2023-03-31T04:50:58;14.30;99.90
22235;DHT22;11286;45.596;5.284;2023-03-31T04:53:23;14.30;99.90
22235;DHT22;11286;45.596;5.284;2023-03-31T04:55:50;14.30;99.90
22235;DHT22;11286;45.596;5.284;2023-03-31T04:58:16;14.20;99.90
22235;DHT22;11286;45.596;5.284;2023-03-31T05:00:41;14.20;99.90
22235;DHT22;11286;45.596;5.284;2023-03-31T05:03:07;14.30;99.90
22235;DHT22;11286;45.596;5.284;2023-03-31T05:05:34;14.30;99.90
22235;DHT22;11286;45.596;5.284;2023-03-31T05:08:00;14.30;99.90
22235;DHT22;11286;45.596;5.284;2023-03-31T05:10:25;14.40;99.90
22235;DHT22;11286;45.596;5.284;2023-03-31T05:12:51;14.40;99.90
22235;DHT22;11286;45.596;5.284;2023-03-31T05:15:17;14.40;99.90
22235;DHT22;11286;45.596;5.284;2023-03-31T05:17:43;14.40;99.90
22235;DHT22;11286;45.596;5.284;2023-03-31T05:20:10;14.40;99.90
22235;DHT22;11286;45.596;5.284;2023-03-31T05:22:37;14.40;99.90
22235;DHT22;11286;45.596;5.284;2023-03-31T05:25:03;14.30;99.90
22235;DHT22;11286;45.596;5.284;2023-03-31T05:27:29;14.40;99.90
22235;DHT22;11286;45.596;5.284;2023-03-31T05:29:55;14.40;99.90
22235;DHT22;11286;45.596;5.284;2023-03-31T05:32:20;14.40;99.90
22235;DHT22;11286;45.596;5.284;2023-03-31T05:34:46;14.40;99.90
22235;DHT22;11286;45.596;5.284;2023-03-31T05:37:12;14.50;99.90
22235;DHT22;11286;45.596;5.284;2023-03-31T05:39:37;14.50;99.90
22235;DHT22;11286;45.596;5.284;2023-03-31T05:42:03;14.50;99.90
22235;DHT22;11286;45.596;5.284;2023-03-31T05:44:30;14.50;99.90
22235;DHT22;11286;45.596;5.284;2023-03-31T05:46:56;14.50;99.90
22235;DHT22;11286;45.596;5.284;2023-03-31T05:49:21;14.50;99.90
22235;DHT22;11286;45.596;5.284;2023-03-31T05:51:47;14.50;99.90
22235;DHT22;11286;45.596;5.284;2023-03-31T05:54:13;14.50;99.90
22235;DHT22;11286;45.596;5.284;2023-03-31T05:56:39;14.50;99.90
22235;DHT22;11286;45.596;5.284;2023-03-31T05:59:05;14.50;99.90
22235;DHT22;11286;45.596;5.284;2023-03-31T06:01:30;14.50;99.90
22235;DHT22;11286;45.596;5.284;2023-03-31T06:03:56;14.50;99.90
22235;DHT22;11286;45.596;5.284;2023-03-31T06:06:22;14.60;99.90
22235;DHT22;11286;45.596;5.284;2023-03-31T06:08:48;14.60;99.90
22235;DHT22;11286;45.596;5.284;2023-03-31T06:11:17;14.50;99.90
22235;DHT22;11286;45.596;5.284;2023-03-31T06:13:44;14.50;99.90
22235;DHT22;11286;45.596;5.284;2023-03-31T06:16:11;14.50;99.90
22235;DHT22;11286;45.596;5.284;2023-03-31T06:18:37;14.50;99.90
22235;DHT22;11286;45.596;5.284;2023-03-31T06:21:03;14.50;99.90
22235;DHT22;11286;45.596;5.284;2023-03-31T06:23:29;14.40;99.90
22235;DHT22;11286;45.596;5.284;2023-03-31T06:26:03;14.30;99.90
22235;DHT22;11286;45.596;5.284;2023-03-31T06:28:31;13.00;99.90
22235;DHT22;11286;45.596;5.284;2023-03-31T06:31:03;12.90;99.90
22235;DHT22;11286;45.596;5.284;2023-03-31T06:33:29;13.10;99.90
22235;DHT22;11286;45.596;5.284;2023-03-31T06:35:56;13.40;99.90
22235;DHT22;11286;45.596;5.284;2023-03-31T06:38:22;13.70;99.90
22235;DHT22;11286;45.596;5.284;2023-03-31T06:40:48;13.90;99.90
22235;DHT22;11286;45.596;5.284;2023-03-31T06:43:14;14.00;99.90
22235;DHT22;11286;45.596;5.284;2023-03-31T06:45:39;14.10;99.90
22235;DHT22;11286;45.596;5.284;2023-03-31T06:48:05;14.10;99.90
22235;DHT22;11286;45.596;5.284;2023-03-31T06:50:31;14.20;99.90
22235;DHT22;11286;45.596;5.284;2023-03-31T06:52:57;14.20;99.90
22235;DHT22;11286;45.596;5.284;2023-03-31T06:55:23;14.30;99.90
22235;DHT22;11286;45.596;5.284;2023-03-31T06:57:48;14.30;99.90
22235;DHT22;11286;45.596;5.284;2023-03-31T07:00:15;14.30;99.90
22235;DHT22;11286;45.596;5.284;2023-03-31T07:02:40;14.20;99.90
22235;DHT22;11286;45.596;5.284;2023-03-31T07:05:06;14.30;99.90
22235;DHT22;11286;45.596;5.284;2023-03-31T07:07:32;14.20;99.90
22235;DHT22;11286;45.596;5.284;2023-03-31T07:09:58;14.30;99.90
22235;DHT22;11286;45.596;5.284;2023-03-31T07:12:24;14.30;99.90
22235;DHT22;11286;45.596;5.284;2023-03-31T07:14:50;14.30;99.90
22235;DHT22;11286;45.596;5.284;2023-03-31T07:17:16;14.30;99.90
22235;DHT22;11286;45.596;5.284;2023-03-31T07:19:41;14.30;99.90
22235;DHT22;11286;45.596;5.284;2023-03-31T07:22:07;14.30;99.90
22235;DHT22;11286;45.596;5.284;2023-03-31T07:24:33;14.30;99.90
22235;DHT22;11286;45.596;5.284;2023-03-31T07:26:59;14.30;99.90
22235;DHT22;11286;45.596;5.284;2023-03-31T07:29:24;14.30;99.90
22235;DHT22;11286;45.596;5.284;2023-03-31T07:31:50;14.30;99.90
22235;DHT22;11286;45.596;5.284;2023-03-31T07:34:17;14.50;99.90
22235;DHT22;11286;45.596;5.284;2023-03-31T07:36:43;14.60;99.90
22235;DHT22;11286;45.596;5.284;2023-03-31T07:39:08;14.50;99.90
22235;DHT22;11286;45.596;5.284;2023-03-31T07:41:34;14.60;99.90
22235;DHT22;11286;45.596;5.284;2023-03-31T07:44:00;14.90;99.90
22235;DHT22;11286;45.596;5.284;2023-03-31T07:46:27;15.00;99.90
22235;DHT22;11286;45.596;5.284;2023-03-31T07:48:54;15.00;99.90
22235;DHT22;11286;45.596;5.284;2023-03-31T07:51:23;15.10;99.90
22235;DHT22;11286;45.596;5.284;2023-03-31T07:53:50;15.00;99.90
22235;DHT22;11286;45.596;5.284;2023-03-31T07:56:18;14.90;99.90
22235;DHT22;11286;45.596;5.284;2023-03-31T07:58:45;14.70;99.90
22235;DHT22;11286;45.596;5.284;2023-03-31T08:01:14;14.70;99.90
22235;DHT22;11286;45.596;5.284;2023-03-31T08:03:41;14.70;99.90
22235;DHT22;11286;45.596;5.284;2023-03-31T08:06:07;14.60;99.90
22235;DHT22;11286;45.596;5.284;2023-03-31T08:08:33;14.70;99.90
22235;DHT22;11286;45.596;5.284;2023-03-31T08:10:58;14.70;99.90
22235;DHT22;11286;45.596;5.284;2023-03-31T08:13:24;14.80;99.90
22235;DHT22;11286;45.596;5.284;2023-03-31T08:15:50;14.80;99.90
22235;DHT22;11286;45.596;5.284;2023-03-31T08:18:15;14.70;99.90
22235;DHT22;11286;45.596;5.284;2023-03-31T08:20:41;14.80;99.90
22235;DHT22;11286;45.596;5.284;2023-03-31T08:23:07;14.80;99.90
22235;DHT22;11286;45.596;5.284;2023-03-31T08:25:36;14.90;99.90
22235;DHT22;11286;45.596;5.284;2023-03-31T08:28:01;15.20;99.90
22235;DHT22;11286;45.596;5.284;2023-03-31T08:30:27;15.30;99.90
22235;DHT22;11286;45.596;5.284;2023-03-31T08:32:52;15.40;99.90
22235;DHT22;11286;45.596;5.284;2023-03-31T08:35:18;15.50;99.90
22235;DHT22;11286;45.596;5.284;2023-03-31T08:37:44;15.80;99.90
22235;DHT22;11286;45.596;5.284;2023-03-31T08:40:19;16.00;99.90
22235;DHT22;11286;45.596;5.284;2023-03-31T08:42:49;15.90;99.90
22235;DHT22;11286;45.596;5.284;2023-03-31T08:47:51;16.30;99.90
22235;DHT22;11286;45.596;5.284;2023-03-31T08:50:24;16.10;99.90
22235;DHT22;11286;45.596;5.284;2023-03-31T08:53:00;16.10;99.90
22235;DHT22;11286;45.596;5.284;2023-03-31T08:55:34;15.90;99.90
22235;DHT22;11286;45.596;5.284;2023-03-31T09:01:07;16.00;99.90
22235;DHT22;11286;45.596;5.284;2023-03-31T09:06:55;16.80;99.90
22235;DHT22;11286;45.596;5.284;2023-03-31T09:12:10;17.00;99.90
22235;DHT22;11286;45.596;5.284;2023-03-31T09:14:43;16.80;99.90
22235;DHT22;11286;45.596;5.284;2023-03-31T09:17:19;17.00;99.90
22235;DHT22;11286;45.596;5.284;2023-03-31T09:19:49;17.00;99.90
22235;DHT22;11286;45.596;5.284;2023-03-31T09:22:22;16.80;99.90
22235;DHT22;11286;45.596;5.284;2023-03-31T09:25:00;16.90;99.90
22235;DHT22;11286;45.596;5.284;2023-03-31T09:27:29;16.50;99.90
22235;DHT22;11286;45.596;5.284;2023-03-31T09:32:36;16.60;99.90
22235;DHT22;11286;45.596;5.284;2023-03-31T09:35:23;16.50;99.90
22235;DHT22;11286;45.596;5.284;2023-03-31T09:37:51;16.80;99.90
22235;DHT22;11286;45.596;5.284;2023-03-31T09:40:22;17.30;99.90
22235;DHT22;11286;45.596;5.284;2023-03-31T09:42:55;17.20;99.90
22235;DHT22;11286;45.596;5.284;2023-03-31T09:45:21;17.60;99.90
22235;DHT22;11286;45.596;5.284;2023-03-31T09:47:54;18.10;99.90
22235;DHT22;11286;45.596;5.284;2023-03-31T09:50:21;19.70;99.90
22235;DHT22;11286;45.596;5.284;2023-03-31T09:52:49;22.00;99.90
22235;DHT22;11286;45.596;5.284;2023-03-31T09:57:49;22.70;99.90
22235;DHT22;11286;45.596;5.284;2023-03-31T10:00:17;21.40;99.90
22235;DHT22;11286;45.596;5.284;2023-03-31T10:02:52;19.40;99.90
22235;DHT22;11286;45.596;5.284;2023-03-31T10:05:30;19.30;99.90
22235;DHT22;11286;45.596;5.284;2023-03-31T10:08:37;19.40;99.90
22235;DHT22;11286;45.596;5.284;2023-03-31T10:18:53;18.90;99.90
22235;DHT22;11286;45.596;5.284;2023-03-31T10:21:36;19.10;99.90
22235;DHT22;11286;45.596;5.284;2023-03-31T10:24:08;18.70;99.90
22235;DHT22;11286;45.596;5.284;2023-03-31T10:26:34;18.60;99.90
22235;DHT22;11286;45.596;5.284;2023-03-31T10:29:00;18.50;99.90
22235;DHT22;11286;45.596;5.284;2023-03-31T10:31:33;18.60;99.90
22235;DHT22;11286;45.596;5.284;2023-03-31T10:34:04;19.00;99.90
22235;DHT22;11286;45.596;5.284;2023-03-31T10:36:30;18.90;99.90
22235;DHT22;11286;45.596;5.284;2023-03-31T10:38:57;19.30;99.90
22235;DHT22;11286;45.596;5.284;2023-03-31T10:41:28;19.60;99.90
22235;DHT22;11286;45.596;5.284;2023-03-31T10:43:58;20.40;99.90
22235;DHT22;11286;45.596;5.284;2023-03-31T10:46:48;23.70;99.90
22235;DHT22;11286;45.596;5.284;2023-03-31T10:51:58;20.10;99.90
22235;DHT22;11286;45.596;5.284;2023-03-31T10:54:25;19.00;99.90
22235;DHT22;11286;45.596;5.284;2023-03-31T10:56:58;20.40;99.90
22235;DHT22;11286;45.596;5.284;2023-03-31T11:02:34;18.70;99.90
22235;DHT22;11286;45.596;5.284;2023-03-31T11:13:37;19.20;99.90
22235;DHT22;11286;45.596;5.284;2023-03-31T11:27:30;26.90;99.90
22235;DHT22;11286;45.596;5.284;2023-03-31T11:41:04;19.80;99.90
22235;DHT22;11286;45.596;5.284;2023-03-31T11:43:50;19.40;99.90
22235;DHT22;11286;45.596;5.284;2023-03-31T11:47:09;19.70;99.90
22235;DHT22;11286;45.596;5.284;2023-03-31T11:49:31;20.50;99.90
22235;DHT22;11286;45.596;5.284;2023-03-31T11:52:13;22.10;99.90
22235;DHT22;11286;45.596;5.284;2023-03-31T11:54:54;24.50;99.90
22235;DHT22;11286;45.596;5.284;2023-03-31T11:57:35;25.10;99.90
22235;DHT22;11286;45.596;5.284;2023-03-31T12:02:52;25.20;99.90
22235;DHT22;11286;45.596;5.284;2023-03-31T12:05:21;25.20;99.90
22235;DHT22;11286;45.596;5.284;2023-03-31T12:11:00;23.40;99.90
22235;DHT22;11286;45.596;5.284;2023-03-31T12:13:54;23.10;99.90
22235;DHT22;11286;45.596;5.284;2023-03-31T12:16:41;22.70;99.90
22235;DHT22;11286;45.596;5.284;2023-03-31T12:22:14;25.30;99.90
22235;DHT22;11286;45.596;5.284;2023-03-31T12:24:41;23.30;99.90
22235;DHT22;11286;45.596;5.284;2023-03-31T12:29:45;20.80;99.90
22235;DHT22;11286;45.596;5.284;2023-03-31T12:32:19;22.70;99.90
22235;DHT22;11286;45.596;5.284;2023-03-31T12:35:07;21.20;99.90
22235;DHT22;11286;45.596;5.284;2023-03-31T12:37:50;20.40;99.90
22235;DHT22;11286;45.596;5.284;2023-03-31T12:45:49;20.40;99.90
22235;DHT22;11286;45.596;5.284;2023-03-31T12:48:42;20.90;99.90
22235;DHT22;11286;45.596;5.284;2023-03-31T12:56:25;22.40;99.90
22235;DHT22;11286;45.596;5.284;2023-03-31T12:58:51;21.60;99.90
22235;DHT22;11286;45.596;5.284;2023-03-31T13:01:21;21.20;99.90
22235;DHT22;11286;45.596;5.284;2023-03-31T13:08:55;20.20;99.90
22235;DHT22;11286;45.596;5.284;2023-03-31T13:11:35;20.00;99.90
22235;DHT22;11286;45.596;5.284;2023-03-31T13:14:02;20.10;99.90
22235;DHT22;11286;45.596;5.284;2023-03-31T13:16:29;21.40;99.90
22235;DHT22;11286;45.596;5.284;2023-03-31T13:18:56;20.80;99.90
22235;DHT22;11286;45.596;5.284;2023-03-31T13:21:22;21.80;99.90
22235;DHT22;11286;45.596;5.284;2023-03-31T13:23:48;23.40;99.90
22235;DHT22;11286;45.596;5.284;2023-03-31T13:29:20;21.40;99.90
22235;DHT22;11286;45.596;5.284;2023-03-31T13:46:19;19.20;99.90
22235;DHT22;11286;45.596;5.284;2023-03-31T13:51:58;19.20;99.90
22235;DHT22;11286;45.596;5.284;2023-03-31T13:54:35;19.40;99.90
22235;DHT22;11286;45.596;5.284;2023-03-31T14:02:42;19.90;99.90
22235;DHT22;11286;45.596;5.284;2023-03-31T14:05:33;19.90;99.90
22235;DHT22;11286;45.596;5.284;2023-03-31T14:10:34;19.00;99.90
22235;DHT22;11286;45.596;5.284;2023-03-31T14:15:29;18.50;99.90
22235;DHT22;11286;45.596;5.284;2023-03-31T14:17:55;18.40;99.90
22235;DHT22;11286;45.596;5.284;2023-03-31T14:31:22;21.00;99.90
22235;DHT22;11286;45.596;5.284;2023-03-31T14:39:09;22.00;99.90
22235;DHT22;11286;45.596;5.284;2023-03-31T14:41:35;22.10;99.90
22235;DHT22;11286;45.596;5.284;2023-03-31T14:44:04;21.30;99.90
22235;DHT22;11286;45.596;5.284;2023-03-31T14:46:34;20.10;99.90
22235;DHT22;11286;45.596;5.284;2023-03-31T14:49:13;19.30;99.90
22235;DHT22;11286;45.596;5.284;2023-03-31T14:51:43;19.20;99.90
22235;DHT22;11286;45.596;5.284;2023-03-31T14:54:17;19.00;99.90
22235;DHT22;11286;45.596;5.284;2023-03-31T14:56:51;19.10;99.90
22235;DHT22;11286;45.596;5.284;2023-03-31T14:59:27;20.00;99.90
22235;DHT22;11286;45.596;5.284;2023-03-31T15:01:57;20.20;99.90
22235;DHT22;11286;45.596;5.284;2023-03-31T15:04:27;20.10;99.90
22235;DHT22;11286;45.596;5.284;2023-03-31T15:06:53;20.10;99.90
22235;DHT22;11286;45.596;5.284;2023-03-31T15:09:28;20.30;99.90
22235;DHT22;11286;45.596;5.284;2023-03-31T15:12:07;20.70;99.90
22235;DHT22;11286;45.596;5.284;2023-03-31T15:14:41;20.30;99.90
22235;DHT22;11286;45.596;5.284;2023-03-31T15:17:23;19.70;99.90
22235;DHT22;11286;45.596;5.284;2023-03-31T15:19:59;19.30;99.90
22235;DHT22;11286;45.596;5.284;2023-03-31T15:22:28;19.00;99.90
22235;DHT22;11286;45.596;5.284;2023-03-31T15:24:55;18.50;99.90
22235;DHT22;11286;45.596;5.284;2023-03-31T15:27:46;19.60;99.90
22235;DHT22;11286;45.596;5.284;2023-03-31T15:30:21;19.30;99.90
22235;DHT22;11286;45.596;5.284;2023-03-31T15:32:47;19.40;99.90
22235;DHT22;11286;45.596;5.284;2023-03-31T15:35:24;19.70;99.90
22235;DHT22;11286;45.596;5.284;2023-03-31T15:37:53;19.60;99.90
22235;DHT22;11286;45.596;5.284;2023-03-31T15:40:36;18.50;99.90
22235;DHT22;11286;45.596;5.284;2023-03-31T15:48:28;19.50;99.90
22235;DHT22;11286;45.596;5.284;2023-03-31T15:51:30;19.60;99.90
22235;DHT22;11286;45.596;5.284;2023-03-31T15:53:57;19.70;99.90
22235;DHT22;11286;45.596;5.284;2023-03-31T15:56:41;20.00;99.90
22235;DHT22;11286;45.596;5.284;2023-03-31T15:59:22;19.90;99.90
22235;DHT22;11286;45.596;5.284;2023-03-31T16:01:49;18.90;99.90
22235;DHT22;11286;45.596;5.284;2023-03-31T16:04:15;18.50;99.90
22235;DHT22;11286;45.596;5.284;2023-03-31T16:07:07;18.50;99.90
22235;DHT22;11286;45.596;5.284;2023-03-31T16:12:14;17.90;99.90
22235;DHT22;11286;45.596;5.284;2023-03-31T16:14:58;17.70;99.90
22235;DHT22;11286;45.596;5.284;2023-03-31T16:17:31;17.40;99.90
22235;DHT22;11286;45.596;5.284;2023-03-31T16:20:04;17.60;99.90
22235;DHT22;11286;45.596;5.284;2023-03-31T16:22:37;17.20;99.90
22235;DHT22;11286;45.596;5.284;2023-03-31T16:25:09;16.70;99.90
22235;DHT22;11286;45.596;5.284;2023-03-31T16:27:44;16.10;99.90
22235;DHT22;11286;45.596;5.284;2023-03-31T16:30:15;15.40;99.90
22235;DHT22;11286;45.596;5.284;2023-03-31T16:33:05;14.40;99.90
22235;DHT22;11286;45.596;5.284;2023-03-31T16:35:36;14.20;99.90
22235;DHT22;11286;45.596;5.284;2023-03-31T16:38:04;14.30;99.90
22235;DHT22;11286;45.596;5.284;2023-03-31T16:40:35;14.40;99.90
22235;DHT22;11286;45.596;5.284;2023-03-31T16:43:21;14.40;99.90
22235;DHT22;11286;45.596;5.284;2023-03-31T16:45:55;14.20;99.90
22235;DHT22;11286;45.596;5.284;2023-03-31T16:48:23;14.30;99.90
22235;DHT22;11286;45.596;5.284;2023-03-31T16:50:51;14.70;99.90
22235;DHT22;11286;45.596;5.284;2023-03-31T16:53:20;15.20;99.90
22235;DHT22;11286;45.596;5.284;2023-03-31T16:55:47;15.10;99.90
22235;DHT22;11286;45.596;5.284;2023-03-31T16:58:12;15.50;99.90
22235;DHT22;11286;45.596;5.284;2023-03-31T17:00:39;15.40;99.90
22235;DHT22;11286;45.596;5.284;2023-03-31T17:03:06;16.10;99.90
22235;DHT22;11286;45.596;5.284;2023-03-31T17:05:38;16.30;99.90
22235;DHT22;11286;45.596;5.284;2023-03-31T17:08:03;16.50;99.90
22235;DHT22;11286;45.596;5.284;2023-03-31T17:10:29;16.50;99.90
22235;DHT22;11286;45.596;5.284;2023-03-31T17:12:55;16.10;99.90
22235;DHT22;11286;45.596;5.284;2023-03-31T17:15:20;15.60;99.90
22235;DHT22;11286;45.596;5.284;2023-03-31T17:17:46;15.50;99.90
22235;DHT22;11286;45.596;5.284;2023-03-31T17:20:12;15.40;99.90
22235;DHT22;11286;45.596;5.284;2023-03-31T17:22:38;15.20;99.90
22235;DHT22;11286;45.596;5.284;2023-03-31T17:25:04;15.40;99.90
22235;DHT22;11286;45.596;5.284;2023-03-31T17:27:30;15.20;99.90
22235;DHT22;11286;45.596;5.284;2023-03-31T17:29:56;15.20;99.90
22235;DHT22;11286;45.596;5.284;2023-03-31T17:32:22;15.20;99.90
22235;DHT22;11286;45.596;5.284;2023-03-31T17:34:48;15.00;99.90
22235;DHT22;11286;45.596;5.284;2023-03-31T17:37:17;15.20;99.90
22235;DHT22;11286;45.596;5.284;2023-03-31T17:39:43;14.80;99.90
22235;DHT22;11286;45.596;5.284;2023-03-31T17:42:10;14.70;99.90
22235;DHT22;11286;45.596;5.284;2023-03-31T17:44:37;15.00;99.90
22235;DHT22;11286;45.596;5.284;2023-03-31T17:47:03;14.80;99.90
22235;DHT22;11286;45.596;5.284;2023-03-31T17:49:29;15.10;99.90
22235;DHT22;11286;45.596;5.284;2023-03-31T17:51:54;15.10;99.90
22235;DHT22;11286;45.596;5.284;2023-03-31T17:54:20;15.10;99.90
22235;DHT22;11286;45.596;5.284;2023-03-31T17:56:46;15.10;99.90
22235;DHT22;11286;45.596;5.284;2023-03-31T17:59:15;15.10;99.90
22235;DHT22;11286;45.596;5.284;2023-03-31T18:01:40;14.90;99.90
22235;DHT22;11286;45.596;5.284;2023-03-31T18:04:06;14.70;99.90
22235;DHT22;11286;45.596;5.284;2023-03-31T18:06:32;14.80;99.90
22235;DHT22;11286;45.596;5.284;2023-03-31T18:08:58;14.80;99.90
22235;DHT22;11286;45.596;5.284;2023-03-31T18:11:24;14.70;99.90
22235;DHT22;11286;45.596;5.284;2023-03-31T18:13:51;14.50;99.90
22235;DHT22;11286;45.596;5.284;2023-03-31T18:16:17;14.50;99.90
22235;DHT22;11286;45.596;5.284;2023-03-31T18:18:43;14.70;99.90
22235;DHT22;11286;45.596;5.284;2023-03-31T18:21:11;14.80;99.90
22235;DHT22;11286;45.596;5.284;2023-03-31T18:23:38;14.80;99.90
22235;DHT22;11286;45.596;5.284;2023-03-31T18:26:08;14.80;99.90
22235;DHT22;11286;45.596;5.284;2023-03-31T18:28:33;14.70;99.90
22235;DHT22;11286;45.596;5.284;2023-03-31T18:31:04;14.70;99.90
22235;DHT22;11286;45.596;5.284;2023-03-31T18:33:29;14.70;99.90
22235;DHT22;11286;45.596;5.284;2023-03-31T18:35:55;14.50;99.90
22235;DHT22;11286;45.596;5.284;2023-03-31T18:38:23;14.30;99.90
22235;DHT22;11286;45.596;5.284;2023-03-31T18:40:50;14.20;99.90
22235;DHT22;11286;45.596;5.284;2023-03-31T18:43:16;14.10;99.90
22235;DHT22;11286;45.596;5.284;2023-03-31T18:45:50;14.00;99.90